Time;durP1;ratioP1;P1;durP2;ratioP2;P2;SDS_P1;SDS_P2;PMS_P1;PMS_P2;Temp;Humidity;BMP_temperature;BMP_pressure;BME280_temperature;BME280_humidity;BME280_pressure;Samples;Min_cycle;Max_cycle;Signal;HPM_P1;HPM_P2
2022/06/28 00:01:21;;;;;;;2.60;2.40;;;25.80;63.90;;;;;;5040992;28;20399;-68
2022/06/28 00:03:47;;;;;;;2.57;1.97;;;25.70;63.80;;;;;;5032460;28;20379;-68
2022/06/28 00:06:13;;;;;;;3.13;2.38;;;25.80;63.80;;;;;;5046661;28;20405;-68
2022/06/28 00:08:38;;;;;;;2.30;2.00;;;25.70;63.70;;;;;;5034640;28;20840;-68
2022/06/28 00:11:04;;;;;;;2.55;2.20;;;25.70;63.70;;;;;;5052562;28;20854;-68
2022/06/28 00:13:30;;;;;;;2.67;2.20;;;25.80;63.80;;;;;;5052405;28;20393;-68
2022/06/28 00:16:05;;;;;;;2.70;2.00;;;25.80;63.80;;;;;;5052402;28;20869;-68
2022/06/28 00:18:33;;;;;;;3.08;2.47;;;25.70;63.60;;;;;;5052038;28;20734;-67
2022/06/28 00:20:58;;;;;;;2.40;2.20;;;25.80;63.70;;;;;;5052079;28;20381;-68
2022/06/28 00:23:24;;;;;;;2.60;2.10;;;25.70;63.50;;;;;;5052417;28;20382;-69
2022/06/28 00:25:50;;;;;;;2.90;2.10;;;25.70;63.60;;;;;;5051926;28;20424;-68
2022/06/28 00:28:15;;;;;;;2.40;2.20;;;25.70;63.50;;;;;;5052335;28;20559;-68
2022/06/28 00:30:41;;;;;;;2.40;2.13;;;25.70;63.50;;;;;;5052443;28;20874;-68
2022/06/28 00:33:07;;;;;;;2.50;2.20;;;25.70;63.50;;;;;;5034246;28;20381;-67
2022/06/28 00:35:32;;;;;;;2.13;1.93;;;25.70;63.50;;;;;;5051911;28;20861;-68
2022/06/28 00:37:58;;;;;;;2.33;2.13;;;25.70;63.50;;;;;;5052076;28;20739;-68
2022/06/28 00:40:24;;;;;;;2.20;2.00;;;25.70;63.50;;;;;;5034360;28;20877;-68
2022/06/28 00:42:51;;;;;;;2.35;2.15;;;25.70;63.40;;;;;;5052119;28;20435;-69
2022/06/28 00:45:17;;;;;;;2.47;2.28;;;25.70;63.40;;;;;;5052102;28;20880;-68
2022/06/28 00:47:43;;;;;;;2.20;2.00;;;25.70;63.40;;;;;;5051679;28;20496;-68
2022/06/28 00:50:11;;;;;;;2.22;2.03;;;25.70;63.40;;;;;;5034092;28;20927;-68
2022/06/28 00:53:00;;;;;;;2.22;1.90;;;25.70;63.40;;;;;;5051742;28;20393;-68
2022/06/28 00:55:26;;;;;;;2.47;2.03;;;25.70;63.40;;;;;;5051853;28;20386;-68
2022/06/28 00:57:52;;;;;;;2.60;2.38;;;25.70;63.30;;;;;;5051686;28;20744;-68
2022/06/28 01:00:17;;;;;;;2.40;2.07;;;25.70;63.30;;;;;;5051808;28;20395;-68
2022/06/28 01:02:43;;;;;;;2.10;1.90;;;25.60;63.20;;;;;;5052015;28;20425;-67
2022/06/28 01:05:09;;;;;;;2.40;2.20;;;25.70;63.30;;;;;;5051727;28;20390;-68
2022/06/28 01:07:35;;;;;;;2.25;2.05;;;25.70;63.20;;;;;;5051107;28;20401;-66
2022/06/28 01:10:01;;;;;;;2.10;1.90;;;25.70;63.20;;;;;;5051318;28;20459;-68
2022/06/28 01:12:27;;;;;;;2.00;1.80;;;25.70;63.20;;;;;;5051604;28;20389;-68
2022/06/28 01:14:52;;;;;;;2.30;2.05;;;25.70;63.20;;;;;;5051597;28;20753;-68
2022/06/28 01:17:18;;;;;;;2.00;1.80;;;25.60;63.10;;;;;;5051566;28;20397;-68
2022/06/28 01:19:44;;;;;;;2.00;1.77;;;25.60;63.10;;;;;;5050968;28;20397;-69
2022/06/28 01:22:11;;;;;;;2.20;2.00;;;25.70;63.10;;;;;;5051332;28;20460;-67
2022/06/28 01:24:37;;;;;;;2.03;1.83;;;25.60;63.00;;;;;;5051136;28;20438;-67
2022/06/28 01:27:04;;;;;;;1.88;1.77;;;25.60;63.00;;;;;;5051196;28;20476;-68
2022/06/28 01:29:31;;;;;;;2.28;1.70;;;25.60;63.00;;;;;;5033490;28;20402;-68
2022/06/28 01:31:57;;;;;;;2.10;1.90;;;25.60;63.00;;;;;;5051171;28;20378;-68
2022/06/28 01:34:23;;;;;;;1.97;1.80;;;25.60;63.00;;;;;;5051375;28;20950;-67
2022/06/28 01:36:49;;;;;;;2.10;1.90;;;25.60;63.00;;;;;;5051328;28;20790;-68
2022/06/28 01:39:15;;;;;;;1.87;1.70;;;25.60;63.00;;;;;;5051313;28;20472;-68
2022/06/28 01:41:43;;;;;;;1.83;1.70;;;25.60;63.00;;;;;;5051023;28;20389;-68
2022/06/28 01:44:10;;;;;;;2.20;2.00;;;25.60;62.90;;;;;;5051331;28;20527;-68
2022/06/28 01:46:38;;;;;;;2.10;1.90;;;25.60;63.00;;;;;;5051284;28;20389;-69
2022/06/28 01:49:05;;;;;;;2.00;1.80;;;25.60;62.90;;;;;;5051201;28;20466;-70
2022/06/28 01:51:31;;;;;;;2.10;1.90;;;25.60;62.90;;;;;;5033409;28;20754;-68
2022/06/28 01:53:57;;;;;;;2.00;1.80;;;25.60;62.90;;;;;;5050768;28;20394;-68
2022/06/28 01:56:24;;;;;;;1.70;1.50;;;25.60;62.90;;;;;;5051050;28;20388;-68
2022/06/28 01:58:49;;;;;;;2.00;1.73;;;25.60;62.90;;;;;;5033020;28;20400;-68
2022/06/28 02:01:15;;;;;;;2.10;1.73;;;25.60;62.90;;;;;;5051061;28;20389;-68
2022/06/28 02:03:41;;;;;;;2.13;1.92;;;25.60;62.90;;;;;;5050668;28;20745;-67
2022/06/28 02:06:08;;;;;;;1.65;1.55;;;25.60;62.90;;;;;;5051071;28;20444;-68
2022/06/28 02:08:35;;;;;;;1.73;1.63;;;25.60;62.90;;;;;;5051071;28;20502;-68
2022/06/28 02:11:01;;;;;;;1.63;1.45;;;25.60;62.90;;;;;;5050682;28;20385;-67
2022/06/28 02:13:27;;;;;;;1.60;1.50;;;25.60;62.90;;;;;;5050898;28;20408;-68
2022/06/28 02:15:53;;;;;;;2.25;1.83;;;25.60;62.90;;;;;;5050470;28;20381;-68
2022/06/28 02:18:19;;;;;;;1.87;1.70;;;25.60;62.90;;;;;;5051035;28;20394;-68
2022/06/28 02:20:44;;;;;;;1.70;1.60;;;25.60;62.80;;;;;;5050720;28;20388;-69
2022/06/28 02:23:10;;;;;;;1.90;1.70;;;25.60;62.80;;;;;;5033078;28;20418;-68
2022/06/28 02:25:36;;;;;;;1.90;1.77;;;25.60;62.80;;;;;;5049929;28;20393;-68
2022/06/28 02:28:02;;;;;;;1.83;1.63;;;25.60;62.80;;;;;;5050433;28;20424;-68
2022/06/28 02:30:28;;;;;;;1.80;1.70;;;25.60;62.70;;;;;;5050857;28;20520;-68
2022/06/28 02:32:54;;;;;;;1.90;1.75;;;25.60;62.80;;;;;;5050767;28;20421;-68
2022/06/28 02:41:05;;;;;;;1.73;1.63;;;25.50;62.70;;;;;;5045282;28;20488;-68
2022/06/28 02:43:30;;;;;;;1.70;1.60;;;25.50;62.70;;;;;;5054468;28;20864;-68
2022/06/28 02:45:56;;;;;;;2.20;1.63;;;25.50;62.70;;;;;;5053852;28;20381;-68
2022/06/28 02:48:21;;;;;;;1.70;1.60;;;25.50;62.70;;;;;;5054298;28;20425;-69
2022/06/28 02:50:47;;;;;;;1.80;1.70;;;25.50;62.70;;;;;;5054364;28;20435;-69
2022/06/28 02:53:13;;;;;;;2.17;1.90;;;25.50;62.70;;;;;;5054319;28;20393;-69
2022/06/28 02:55:38;;;;;;;1.90;1.70;;;25.50;62.60;;;;;;5053543;28;20389;-68
2022/06/28 02:58:04;;;;;;;1.87;1.70;;;25.50;62.60;;;;;;5054331;28;20391;-69
2022/06/28 03:00:31;;;;;;;1.83;1.63;;;25.50;62.60;;;;;;5054481;28;20386;-68
2022/06/28 03:02:57;;;;;;;2.10;1.65;;;25.50;62.60;;;;;;5054277;28;20750;-68
2022/06/28 03:05:23;;;;;;;1.97;1.70;;;25.50;62.60;;;;;;5055412;28;20381;-69
2022/06/28 03:07:49;;;;;;;2.90;1.90;;;25.50;62.60;;;;;;5035533;28;20401;-68
2022/06/28 03:10:15;;;;;;;2.30;1.90;;;25.50;64.60;;;;;;5036577;28;20398;-69
2022/06/28 03:12:41;;;;;;;3.03;1.90;;;25.50;64.50;;;;;;5035957;28;20400;-69
2022/06/28 03:15:09;;;;;;;4.57;2.75;;;25.60;65.30;;;;;;5036595;28;20758;-70
2022/06/28 03:17:35;;;;;;;5.45;3.05;;;25.60;65.80;;;;;;5053019;28;20381;-69
2022/06/28 03:20:00;;;;;;;4.03;2.77;;;25.60;65.60;;;;;;5054429;28;20734;-68
2022/06/28 03:22:26;;;;;;;4.53;3.20;;;25.60;65.30;;;;;;5055067;28;20413;-69
2022/06/28 03:24:52;;;;;;;3.38;2.53;;;25.60;66.00;;;;;;5054988;28;20397;-69
2022/06/28 03:27:17;;;;;;;3.00;2.57;;;25.60;64.50;;;;;;5053902;28;20425;-69
2022/06/28 03:29:43;;;;;;;3.35;2.55;;;25.60;65.50;;;;;;5035545;28;20408;-66
2022/06/28 03:32:09;;;;;;;3.50;2.47;;;25.60;65.10;;;;;;5035851;28;20396;-70
2022/06/28 03:34:34;;;;;;;4.17;2.40;;;25.70;65.40;;;;;;5054673;28;20397;-68
2022/06/28 03:37:00;;;;;;;5.07;2.22;;;25.70;65.50;;;;;;5053569;28;20457;-69
2022/06/28 03:39:26;;;;;;;3.67;2.30;;;25.70;65.20;;;;;;5054036;28;20484;-68
2022/06/28 03:41:51;;;;;;;3.97;2.40;;;25.70;65.80;;;;;;5052785;28;20408;-68
2022/06/28 03:44:17;;;;;;;3.50;2.20;;;25.70;64.90;;;;;;5053359;28;20904;-68
2022/06/28 03:46:42;;;;;;;3.38;2.20;;;25.60;63.90;;;;;;5053159;28;20378;-68
2022/06/28 03:49:08;;;;;;;3.83;2.30;;;25.60;63.90;;;;;;5052768;28;20432;-66
2022/06/28 03:51:34;;;;;;;4.03;2.30;;;25.60;64.40;;;;;;5053186;28;20397;-67
2022/06/28 03:53:59;;;;;;;5.78;2.20;;;25.60;63.70;;;;;;5051974;28;20401;-67
2022/06/28 03:56:26;;;;;;;3.77;2.30;;;25.60;62.80;;;;;;5056369;28;20389;-66
2022/06/28 03:58:51;;;;;;;4.15;2.38;;;25.50;62.90;;;;;;5035180;28;20488;-68
2022/06/28 04:01:17;;;;;;;4.95;2.45;;;25.50;62.10;;;;;;5053144;28;20472;-69
2022/06/28 04:03:43;;;;;;;4.45;2.53;;;25.50;62.30;;;;;;5053277;28;20432;-67
2022/06/28 04:06:08;;;;;;;4.82;2.50;;;25.40;62.40;;;;;;5053174;28;20392;-69
2022/06/28 04:08:34;;;;;;;4.40;2.30;;;25.40;62.30;;;;;;5052814;28;20802;-66
2022/06/28 04:11:15;;;;;;;5.77;2.33;;;25.40;62.60;;;;;;5053237;28;20409;-66
2022/06/28 04:13:53;;;;;;;5.25;2.38;;;25.40;62.50;;;;;;5052567;28;20385;-66
2022/06/28 04:16:22;;;;;;;3.83;2.30;;;25.30;62.50;;;;;;5052732;28;20381;-67
2022/06/28 04:18:49;;;;;;;3.45;2.30;;;25.30;62.60;;;;;;5052513;28;20447;-67
2022/06/28 04:21:17;;;;;;;4.57;2.10;;;25.40;62.50;;;;;;5052492;28;20420;-67
2022/06/28 04:23:43;;;;;;;4.05;2.10;;;25.30;62.20;;;;;;5052242;28;20393;-66
2022/06/28 04:26:09;;;;;;;4.40;2.00;;;25.30;62.10;;;;;;5034332;28;20949;-67
2022/06/28 04:28:35;;;;;;;3.40;2.17;;;25.30;62.10;;;;;;5052421;28;20773;-67
2022/06/28 04:31:02;;;;;;;3.70;2.20;;;25.30;62.20;;;;;;5052301;28;20389;-66
2022/06/28 04:33:28;;;;;;;3.70;2.17;;;25.30;62.30;;;;;;5052437;28;20385;-67
2022/06/28 04:35:55;;;;;;;4.78;2.08;;;25.30;62.20;;;;;;5051729;28;20443;-68
2022/06/28 04:38:21;;;;;;;4.18;2.15;;;25.30;62.20;;;;;;5052811;28;20401;-67
2022/06/28 04:40:47;;;;;;;3.63;2.10;;;25.30;62.30;;;;;;5051865;28;20381;-68
2022/06/28 04:43:13;;;;;;;4.20;2.65;;;25.30;62.60;;;;;;5051645;28;20800;-67
2022/06/28 04:45:39;;;;;;;5.97;4.53;;;25.30;62.70;;;;;;5052250;28;20376;-67
2022/06/28 04:48:05;;;;;;;5.68;3.97;;;25.30;64.00;;;;;;5033834;28;20417;-67
2022/06/28 04:50:31;;;;;;;5.22;3.28;;;25.30;64.00;;;;;;5051787;28;20390;-68
2022/06/28 04:52:57;;;;;;;4.32;2.60;;;25.30;63.70;;;;;;5035042;28;20398;-65
2022/06/28 04:55:23;;;;;;;5.07;2.37;;;25.30;63.00;;;;;;5033379;28;20386;-68
2022/06/28 04:57:49;;;;;;;3.40;2.53;;;25.30;62.50;;;;;;5041841;28;20389;-68
2022/06/28 05:00:16;;;;;;;3.78;2.30;;;25.40;63.10;;;;;;5050439;28;20879;-68
2022/06/28 05:02:42;;;;;;;3.80;2.30;;;25.30;62.50;;;;;;5051421;28;20394;-67
2022/06/28 05:05:09;;;;;;;4.97;2.58;;;25.30;62.30;;;;;;5051406;28;20468;-68
2022/06/28 05:07:37;;;;;;;4.78;2.58;;;25.30;62.30;;;;;;5051541;28;20411;-68
2022/06/28 05:10:04;;;;;;;4.00;2.38;;;25.30;62.30;;;;;;5032908;28;20493;-69
2022/06/28 05:12:30;;;;;;;4.72;2.20;;;25.30;62.30;;;;;;5033223;28;20386;-67
2022/06/28 05:14:56;;;;;;;3.77;2.20;;;25.30;62.30;;;;;;5033282;28;20412;-68
2022/06/28 05:17:21;;;;;;;3.05;2.17;;;25.30;62.30;;;;;;5051514;28;20420;-67
2022/06/28 05:19:48;;;;;;;3.83;2.30;;;25.30;62.30;;;;;;5050662;28;20428;-68
2022/06/28 05:22:14;;;;;;;3.50;2.30;;;25.30;62.40;;;;;;5050742;28;20405;-69
2022/06/28 05:24:40;;;;;;;3.20;2.13;;;25.30;62.40;;;;;;5153790;22;20392;-69
2022/06/28 05:27:06;;;;;;;2.80;2.20;;;25.30;62.50;;;;;;5013664;28;20415;-68
2022/06/28 05:29:32;;;;;;;4.30;2.33;;;25.30;62.30;;;;;;5032137;28;20396;-69
2022/06/28 05:31:59;;;;;;;2.95;1.95;;;25.30;62.30;;;;;;5029677;28;20794;-69
2022/06/28 05:34:25;;;;;;;2.67;1.90;;;25.30;62.40;;;;;;5015872;28;20496;-69
2022/06/28 05:36:50;;;;;;;2.10;1.90;;;25.30;62.40;;;;;;5030819;28;20639;-68
2022/06/28 05:39:16;;;;;;;3.17;2.20;;;25.30;62.20;;;;;;5031251;28;20391;-69
2022/06/28 05:41:43;;;;;;;2.50;2.05;;;25.30;62.20;;;;;;5031201;28;20414;-69
2022/06/28 05:44:10;;;;;;;2.08;1.80;;;25.30;62.30;;;;;;5030868;28;20393;-69
2022/06/28 05:46:36;;;;;;;2.58;1.90;;;25.30;62.30;;;;;;5030974;28;20413;-69
2022/06/28 05:49:02;;;;;;;2.40;2.00;;;25.30;62.30;;;;;;5030805;28;20442;-69
2022/06/28 05:51:29;;;;;;;2.30;1.73;;;25.30;62.40;;;;;;5013533;28;20764;-69
2022/06/28 05:53:56;;;;;;;2.20;1.90;;;25.40;62.40;;;;;;5012783;28;20958;-69
2022/06/28 05:56:21;;;;;;;2.53;1.90;;;25.30;62.40;;;;;;5031191;28;20399;-70
2022/06/28 05:58:49;;;;;;;2.35;1.77;;;25.30;62.30;;;;;;5030734;28;20402;-69
2022/06/28 06:01:17;;;;;;;2.65;1.92;;;25.30;62.30;;;;;;5031204;28;20383;-69
2022/06/28 06:03:42;;;;;;;2.10;1.90;;;25.30;62.30;;;;;;5028729;28;20404;-69
2022/06/28 06:06:08;;;;;;;2.90;1.85;;;25.30;62.30;;;;;;5030394;28;20481;-68
2022/06/28 06:08:35;;;;;;;2.27;1.97;;;25.30;62.30;;;;;;5030826;28;20423;-70
2022/06/28 06:11:07;;;;;;;2.60;1.83;;;25.30;62.30;;;;;;5030839;28;20403;-69
2022/06/28 06:13:33;;;;;;;3.05;2.00;;;25.30;62.30;;;;;;5030989;28;20524;-68
2022/06/28 06:15:59;;;;;;;3.50;2.00;;;25.30;62.20;;;;;;5030455;28;20391;-69
2022/06/28 06:18:25;;;;;;;2.10;1.90;;;25.30;62.20;;;;;;5034810;28;20898;-68
2022/06/28 06:20:50;;;;;;;2.10;1.90;;;25.30;62.20;;;;;;5034747;28;20419;-68
2022/06/28 06:23:16;;;;;;;2.17;1.95;;;25.30;62.10;;;;;;5034745;28;20395;-67
2022/06/28 06:25:42;;;;;;;2.20;1.90;;;25.30;62.10;;;;;;5034542;28;20502;-69
2022/06/28 06:28:07;;;;;;;2.08;1.88;;;25.30;62.20;;;;;;5034104;28;20810;-68
2022/06/28 06:30:33;;;;;;;1.90;1.70;;;25.30;62.00;;;;;;5034174;28;20490;-68
2022/06/28 06:32:59;;;;;;;2.40;2.20;;;25.30;62.00;;;;;;5034346;28;20402;-70
2022/06/28 06:35:25;;;;;;;2.67;2.08;;;25.30;62.00;;;;;;5034555;28;20742;-69
2022/06/28 06:37:53;;;;;;;2.67;2.25;;;25.30;62.00;;;;;;5034178;28;20454;-68
2022/06/28 06:40:19;;;;;;;2.20;1.90;;;25.30;62.00;;;;;;5034133;28;20387;-69
2022/06/28 06:42:45;;;;;;;2.10;1.90;;;25.30;62.00;;;;;;5034313;28;20387;-69
2022/06/28 06:45:11;;;;;;;2.20;2.00;;;25.30;62.00;;;;;;5034141;28;20947;-68
2022/06/28 06:47:37;;;;;;;2.90;1.88;;;25.30;62.00;;;;;;5016530;28;20767;-68
2022/06/28 06:50:08;;;;;;;2.83;1.92;;;25.30;62.00;;;;;;5015951;28;20895;-68
2022/06/28 06:52:34;;;;;;;2.15;1.95;;;25.30;62.00;;;;;;5034336;28;20399;-69
2022/06/28 06:54:59;;;;;;;2.30;1.90;;;25.30;62.00;;;;;;5033877;28;20395;-69
2022/06/28 06:57:25;;;;;;;1.90;1.70;;;25.30;62.00;;;;;;5034119;28;20746;-69
2022/06/28 06:59:51;;;;;;;1.90;1.80;;;25.30;62.00;;;;;;5033686;28;20391;-67
2022/06/28 07:02:16;;;;;;;2.10;1.90;;;25.30;62.00;;;;;;5033701;28;20473;-69
2022/06/28 07:04:42;;;;;;;2.10;1.90;;;25.30;62.00;;;;;;5033954;28;20391;-68
2022/06/28 07:07:08;;;;;;;2.75;1.80;;;25.30;61.90;;;;;;5015899;28;20387;-69
2022/06/28 07:09:33;;;;;;;2.10;1.90;;;25.30;61.90;;;;;;5033919;28;20408;-68
2022/06/28 07:11:59;;;;;;;2.90;2.20;;;25.30;61.80;;;;;;5033354;28;20383;-68
2022/06/28 07:14:25;;;;;;;2.30;2.00;;;25.30;61.80;;;;;;5033732;28;20921;-68
2022/06/28 07:16:50;;;;;;;2.13;1.80;;;25.30;61.80;;;;;;5033769;28;20420;-69
2022/06/28 07:19:16;;;;;;;2.67;2.10;;;25.30;61.80;;;;;;5033556;28;20881;-68
2022/06/28 07:21:42;;;;;;;2.33;2.00;;;25.30;61.80;;;;;;5033757;28;20747;-68
2022/06/28 07:24:09;;;;;;;2.50;2.30;;;25.30;61.80;;;;;;5033142;28;20441;-68
2022/06/28 07:26:37;;;;;;;3.03;2.20;;;25.30;61.90;;;;;;5033413;28;20411;-68
2022/06/28 07:29:04;;;;;;;2.20;2.00;;;25.30;61.80;;;;;;5033150;28;20419;-68
2022/06/28 07:31:30;;;;;;;2.65;1.90;;;25.40;61.80;;;;;;5033534;28;20929;-68
2022/06/28 07:33:57;;;;;;;1.98;1.77;;;25.40;61.90;;;;;;5033119;28;20875;-69
2022/06/28 07:36:23;;;;;;;2.53;1.80;;;25.40;61.80;;;;;;5015371;28;20392;-69
2022/06/28 07:38:49;;;;;;;2.38;2.00;;;25.40;61.80;;;;;;5033369;28;20444;-69
2022/06/28 07:41:14;;;;;;;2.40;1.87;;;25.40;61.70;;;;;;5033264;28;20797;-68
2022/06/28 07:43:40;;;;;;;2.70;1.90;;;25.40;61.80;;;;;;5032975;28;20395;-68
2022/06/28 07:46:06;;;;;;;2.20;2.00;;;25.40;61.80;;;;;;5015064;28;20391;-69
2022/06/28 07:48:32;;;;;;;2.20;1.88;;;25.40;61.60;;;;;;5033106;28;20411;-69
2022/06/28 07:53:42;;;;;;;2.58;2.00;;;25.40;61.60;;;;;;5033305;28;20395;-68
2022/06/28 07:56:08;;;;;;;2.27;2.00;;;25.40;61.60;;;;;;5032363;28;20392;-69
2022/06/28 07:58:34;;;;;;;2.10;1.90;;;25.40;61.50;;;;;;5033024;28;20488;-69
2022/06/28 08:00:59;;;;;;;2.43;2.10;;;25.40;61.50;;;;;;5032753;28;20390;-68
2022/06/28 08:03:25;;;;;;;2.42;2.10;;;25.40;61.50;;;;;;5032805;28;20426;-69
2022/06/28 08:05:51;;;;;;;2.30;2.10;;;25.30;61.50;;;;;;5032548;28;20864;-69
2022/06/28 08:08:17;;;;;;;2.22;1.98;;;25.30;61.50;;;;;;5032212;28;20415;-69
2022/06/28 08:10:42;;;;;;;2.30;2.10;;;25.40;61.50;;;;;;5032235;28;20453;-69
2022/06/28 08:13:12;;;;;;;2.60;2.30;;;25.40;61.50;;;;;;5033484;28;20394;-69
2022/06/28 08:15:38;;;;;;;2.58;1.90;;;25.40;61.50;;;;;;5032170;28;20402;-68
2022/06/28 08:18:03;;;;;;;2.80;2.08;;;25.40;61.50;;;;;;5032241;28;20387;-69
2022/06/28 08:20:31;;;;;;;4.03;2.45;;;25.40;61.60;;;;;;5032611;28;20396;-69
2022/06/28 08:22:57;;;;;;;3.17;2.20;;;25.40;61.50;;;;;;5014430;28;20394;-70
2022/06/28 08:25:23;;;;;;;2.72;2.20;;;25.40;61.60;;;;;;5014327;28;20449;-69
2022/06/28 08:27:49;;;;;;;3.07;2.30;;;25.40;61.50;;;;;;5014712;28;20454;-69
2022/06/28 08:30:14;;;;;;;2.47;2.20;;;25.40;61.40;;;;;;5031910;28;20387;-69
2022/06/28 08:32:40;;;;;;;2.60;2.40;;;25.40;61.40;;;;;;5031952;28;20395;-70
2022/06/28 08:35:06;;;;;;;3.00;2.38;;;25.40;61.30;;;;;;5032276;28;20391;-70
2022/06/28 08:37:32;;;;;;;2.92;2.45;;;25.40;61.30;;;;;;5032304;28;20402;-69
2022/06/28 08:39:58;;;;;;;2.97;2.30;;;25.40;61.40;;;;;;5032312;28;20474;-68
2022/06/28 08:42:30;;;;;;;2.83;2.33;;;25.40;61.20;;;;;;5032959;28;20398;-69
2022/06/28 08:45:00;;;;;;;3.33;2.25;;;25.40;61.30;;;;;;5031963;28;20474;-69
2022/06/28 08:47:31;;;;;;;3.35;2.42;;;25.40;61.50;;;;;;5032122;28;20434;-69
2022/06/28 08:50:00;;;;;;;2.42;2.20;;;25.40;61.50;;;;;;5031946;28;20464;-69
2022/06/28 08:52:26;;;;;;;2.65;2.45;;;25.40;61.30;;;;;;5031937;28;20390;-68
2022/06/28 08:54:52;;;;;;;3.70;2.30;;;25.40;61.40;;;;;;5031726;28;20399;-69
2022/06/28 08:57:19;;;;;;;2.73;2.20;;;25.40;61.30;;;;;;5031749;28;20462;-69
2022/06/28 08:59:47;;;;;;;2.88;2.30;;;25.40;61.40;;;;;;5031578;28;20453;-68
2022/06/28 09:02:14;;;;;;;3.35;2.30;;;25.40;61.40;;;;;;5031791;28;20890;-68
2022/06/28 09:04:44;;;;;;;2.70;2.40;;;25.40;61.30;;;;;;5031971;28;20438;-69
2022/06/28 09:07:10;;;;;;;3.20;2.13;;;25.40;61.30;;;;;;5031595;28;20383;-70
2022/06/28 09:09:35;;;;;;;2.72;2.42;;;25.40;61.30;;;;;;5014124;28;20465;-68
2022/06/28 09:12:03;;;;;;;2.60;2.40;;;25.40;61.30;;;;;;5031434;28;20799;-69
2022/06/28 09:14:33;;;;;;;2.78;2.45;;;25.40;61.30;;;;;;5031547;28;20430;-68
2022/06/28 09:17:19;;;;;;;3.70;2.45;;;25.40;61.40;;;;;;5031610;28;20419;-69
2022/06/28 09:19:44;;;;;;;3.60;2.40;;;25.40;61.40;;;;;;5013969;28;20471;-69
2022/06/28 09:22:29;;;;;;;2.78;2.58;;;25.40;61.40;;;;;;5030960;28;20474;-69
2022/06/28 09:24:56;;;;;;;2.50;2.30;;;25.40;61.30;;;;;;5032973;28;20408;-70
2022/06/28 09:27:37;;;;;;;2.50;2.30;;;25.30;61.30;;;;;;5031541;28;20474;-69
2022/06/28 09:30:06;;;;;;;2.60;2.40;;;25.40;61.50;;;;;;5031148;28;20398;-68
2022/06/28 09:32:34;;;;;;;2.53;2.33;;;25.40;61.50;;;;;;5031375;28;20399;-68
2022/06/28 09:35:06;;;;;;;3.00;2.50;;;25.40;61.40;;;;;;5013370;28;20472;-70
2022/06/28 09:37:34;;;;;;;2.80;2.47;;;25.40;61.40;;;;;;5031318;28;20816;-69
2022/06/28 09:40:12;;;;;;;2.40;2.13;;;25.40;61.50;;;;;;5030788;28;20398;-67
2022/06/28 09:42:38;;;;;;;2.50;2.20;;;25.40;61.50;;;;;;5030938;28;20478;-69
2022/06/28 09:45:05;;;;;;;3.47;2.70;;;25.40;61.50;;;;;;5013486;28;20494;-70
2022/06/28 09:47:31;;;;;;;2.42;2.22;;;25.40;61.50;;;;;;5012577;28;20427;-69
2022/06/28 09:49:58;;;;;;;3.03;2.70;;;25.40;61.50;;;;;;5030229;28;20468;-69
2022/06/28 09:52:28;;;;;;;3.17;2.33;;;25.40;61.50;;;;;;5032788;28;20383;-69
2022/06/28 09:54:58;;;;;;;3.10;2.53;;;25.40;61.50;;;;;;5034954;28;20929;-69
2022/06/28 09:57:24;;;;;;;2.60;2.40;;;25.40;61.50;;;;;;5017781;28;20490;-68
2022/06/28 09:59:50;;;;;;;2.65;2.42;;;25.40;61.40;;;;;;5035762;28;20402;-69
2022/06/28 10:02:17;;;;;;;3.00;2.70;;;25.40;61.40;;;;;;5035289;28;20387;-68
2022/06/28 10:04:45;;;;;;;3.08;2.67;;;25.40;61.40;;;;;;5035267;28;20477;-69
2022/06/28 10:07:11;;;;;;;2.87;2.60;;;25.40;61.40;;;;;;5034748;28;20952;-69
2022/06/28 10:09:38;;;;;;;3.03;2.72;;;25.40;61.40;;;;;;5034565;28;20525;-70
2022/06/28 10:15:01;;;;;;;2.70;2.50;;;25.40;61.20;;;;;;5035099;28;20382;-69
2022/06/28 10:17:49;;;;;;;3.05;2.70;;;25.40;61.20;;;;;;5034958;28;20394;-69
2022/06/28 10:20:27;;;;;;;2.92;2.72;;;25.40;61.50;;;;;;5034485;28;20417;-69
2022/06/28 10:23:18;;;;;;;3.30;3.00;;;25.40;61.60;;;;;;5034310;28;20387;-69
2022/06/28 10:26:06;;;;;;;4.50;4.10;;;25.40;61.90;;;;;;5032713;28;20482;-70
2022/06/28 10:29:01;;;;;;;3.50;3.20;;;25.40;62.70;;;;;;5031159;28;20414;-70
2022/06/28 10:31:29;;;;;;;4.00;3.60;;;25.50;62.60;;;;;;5012516;28;20395;-69
2022/06/28 10:34:07;;;;;;;3.72;3.30;;;25.50;62.70;;;;;;5015736;28;20399;-70
2022/06/28 10:36:57;;;;;;;4.00;3.30;;;25.50;62.60;;;;;;5033452;28;20387;-69
2022/06/28 10:39:31;;;;;;;3.90;3.60;;;25.50;62.80;;;;;;5033368;28;20406;-70
2022/06/28 10:42:00;;;;;;;3.70;3.40;;;25.50;62.80;;;;;;5033495;28;20391;-68
2022/06/28 10:44:27;;;;;;;4.03;3.63;;;25.60;62.90;;;;;;5032988;28;20374;-68
2022/06/28 10:47:01;;;;;;;3.53;3.22;;;25.60;63.00;;;;;;5033626;28;20391;-69
2022/06/28 10:49:54;;;;;;;3.60;3.30;;;25.60;63.40;;;;;;5030526;28;20915;-69
2022/06/28 10:52:34;;;;;;;3.50;3.10;;;25.60;63.30;;;;;;5032326;28;20401;-70
2022/06/28 10:55:02;;;;;;;3.42;3.13;;;25.60;63.00;;;;;;5029137;28;20387;-70
2022/06/28 10:57:36;;;;;;;3.00;2.72;;;25.60;63.00;;;;;;5024880;28;20403;-70
2022/06/28 11:00:10;;;;;;;3.40;3.00;;;25.60;62.70;;;;;;5033004;28;20397;-70
2022/06/28 11:02:45;;;;;;;3.10;2.90;;;25.60;62.70;;;;;;5032137;28;20464;-69
2022/06/28 11:05:10;;;;;;;3.07;2.80;;;25.60;62.60;;;;;;5029876;28;20515;-70
2022/06/28 11:07:39;;;;;;;3.25;2.95;;;25.60;62.90;;;;;;5032696;28;20490;-70
2022/06/28 11:10:05;;;;;;;3.00;2.70;;;25.60;63.00;;;;;;5032473;28;20448;-67
2022/06/28 11:12:37;;;;;;;3.03;2.70;;;25.70;63.20;;;;;;5032139;28;20478;-70
2022/06/28 11:15:08;;;;;;;3.28;2.97;;;25.70;63.00;;;;;;5013437;28;20392;-69
2022/06/28 11:17:42;;;;;;;3.25;2.70;;;25.60;62.40;;;;;;5032192;28;21054;-70
2022/06/28 11:20:20;;;;;;;3.13;2.75;;;25.60;62.20;;;;;;5029849;28;20391;-69
2022/06/28 11:22:48;;;;;;;3.25;2.75;;;25.60;62.10;;;;;;5030206;28;20887;-69
2022/06/28 11:25:22;;;;;;;3.20;2.78;;;25.60;61.80;;;;;;5014584;28;20411;-69
2022/06/28 11:27:53;;;;;;;3.13;2.83;;;25.60;61.90;;;;;;5029769;28;20426;-69
2022/06/28 11:30:23;;;;;;;3.78;3.30;;;25.50;61.90;;;;;;5014216;28;20837;-69
2022/06/28 11:32:50;;;;;;;5.88;4.68;;;25.50;61.90;;;;;;5029916;28;20394;-70
2022/06/28 11:35:23;;;;;;;6.32;4.85;;;25.50;61.90;;;;;;5032231;28;20402;-69
2022/06/28 11:37:57;;;;;;;6.00;4.63;;;25.50;61.80;;;;;;5032339;28;20402;-70
2022/06/28 11:40:28;;;;;;;4.72;3.88;;;25.50;61.80;;;;;;5031678;28;20406;-69
2022/06/28 11:43:04;;;;;;;4.85;3.42;;;25.50;61.70;;;;;;5014288;28;20759;-69
2022/06/28 11:45:35;;;;;;;5.85;4.43;;;25.50;61.70;;;;;;5030005;28;20391;-70
2022/06/28 11:48:16;;;;;;;5.35;4.35;;;25.50;61.70;;;;;;5031825;28;20457;-69
2022/06/28 11:50:53;;;;;;;9.27;6.20;;;25.50;61.70;;;;;;5031984;28;20402;-69
2022/06/28 11:53:19;;;;;;;8.07;5.83;;;25.50;61.70;;;;;;5032513;28;20553;-71
2022/06/28 11:55:48;;;;;;;7.35;5.10;;;25.50;61.70;;;;;;5032423;28;20449;-70
2022/06/28 11:58:17;;;;;;;7.03;4.82;;;25.50;61.70;;;;;;5013825;28;20415;-67
2022/06/28 12:01:09;;;;;;;6.25;4.45;;;25.50;61.70;;;;;;5032186;28;20390;-69
2022/06/28 12:03:56;;;;;;;5.63;4.35;;;25.50;61.70;;;;;;5030229;28;20395;-68
2022/06/28 12:06:23;;;;;;;5.80;4.60;;;25.50;61.60;;;;;;5030919;28;21250;-70
2022/06/28 12:08:59;;;;;;;5.82;4.80;;;25.50;61.60;;;;;;5031868;28;20423;-70
2022/06/28 12:11:32;;;;;;;6.68;4.75;;;25.50;61.70;;;;;;5031748;28;20414;-69
2022/06/28 12:14:02;;;;;;;6.85;4.85;;;25.50;61.60;;;;;;5030728;28;20387;-70
2022/06/28 12:16:49;;;;;;;6.45;4.93;;;25.50;61.60;;;;;;5028684;28;20398;-69
2022/06/28 12:19:20;;;;;;;6.03;5.00;;;25.50;61.70;;;;;;5030090;28;20406;-70
2022/06/28 12:22:09;;;;;;;6.25;4.85;;;25.50;61.70;;;;;;5028836;28;20397;-69
2022/06/28 12:24:54;;;;;;;6.27;4.80;;;25.40;61.60;;;;;;5029628;28;21027;-70
2022/06/28 12:27:24;;;;;;;5.68;4.40;;;25.40;61.60;;;;;;5030573;28;20403;-71
2022/06/28 12:29:51;;;;;;;5.90;4.50;;;25.40;61.50;;;;;;5028973;28;20496;-72
2022/06/28 12:32:17;;;;;;;6.20;4.40;;;25.40;61.50;;;;;;5030889;28;20415;-68
2022/06/28 12:34:43;;;;;;;5.83;4.40;;;25.40;61.60;;;;;;5013309;28;20910;-70
2022/06/28 12:37:10;;;;;;;5.82;4.60;;;25.40;61.60;;;;;;5032016;28;20391;-70
2022/06/28 12:39:36;;;;;;;5.30;4.35;;;25.40;61.60;;;;;;5031844;28;20403;-70
2022/06/28 12:42:02;;;;;;;5.38;4.53;;;25.40;61.50;;;;;;5013489;28;20486;-69
2022/06/28 12:44:29;;;;;;;5.78;4.70;;;25.40;61.50;;;;;;5031902;28;20875;-70
2022/06/28 12:46:55;;;;;;;5.20;4.47;;;25.40;61.60;;;;;;5031261;28;20395;-70
2022/06/28 12:49:22;;;;;;;5.43;4.65;;;25.40;61.50;;;;;;5030730;28;20418;-69
2022/06/28 12:51:48;;;;;;;5.93;4.68;;;25.40;61.50;;;;;;5031012;28;20810;-70
2022/06/28 12:54:15;;;;;;;5.80;4.57;;;25.40;61.50;;;;;;5030260;28;20409;-69
2022/06/28 12:56:41;;;;;;;6.70;4.97;;;25.40;61.50;;;;;;5012053;28;20969;-69
2022/06/28 12:59:06;;;;;;;7.10;4.90;;;25.40;61.50;;;;;;5028030;28;20406;-69
2022/06/28 13:01:32;;;;;;;6.23;5.20;;;25.40;61.50;;;;;;5012722;28;20387;-70
2022/06/28 13:03:58;;;;;;;5.80;4.82;;;25.40;61.60;;;;;;5030589;28;20391;-69